Time;durP1;ratioP1;P1;durP2;ratioP2;P2;SDS_P1;SDS_P2;PMS_P1;PMS_P2;Temp;Humidity;BMP_temperature;BMP_pressure;BME280_temperature;BME280_humidity;BME280_pressure;Samples;Min_cycle;Max_cycle;Signal;HPM_P1;HPM_P2
2022/08/08 03:02:49;;;;;;;;;;;29.00;35.30;;;;;;4988702;23;45152;-63
2022/08/08 03:05:23;;;;;;;;;;;29.00;35.30;;;;;;4921405;28;45217;-63
2022/08/08 03:08:07;;;;;;;;;;;29.00;35.30;;;;;;4920747;28;45301;-63
2022/08/08 03:10:45;;;;;;;;;;;29.00;35.40;;;;;;4915579;28;45297;-63
2022/08/08 03:13:29;;;;;;;;;;;29.00;35.40;;;;;;4906928;28;45500;-65
2022/08/08 03:16:17;;;;;;;;;;;29.00;35.40;;;;;;4919128;28;45205;-63
2022/08/08 03:18:47;;;;;;;;;;;28.90;35.40;;;;;;4926231;28;45321;-63
2022/08/08 03:21:13;;;;;;;;;;;28.90;35.40;;;;;;4902666;28;45320;-63
2022/08/08 03:23:38;;;;;;;;;;;28.90;35.40;;;;;;4912345;28;47133;-63
2022/08/08 03:26:04;;;;;;;;;;;28.90;35.40;;;;;;4899345;28;45501;-62
2022/08/08 03:28:31;;;;;;;;;;;28.90;35.40;;;;;;4920849;28;45419;-62
2022/08/08 03:30:56;;;;;;;;;;;28.90;35.40;;;;;;4890155;28;45473;-63
2022/08/08 03:33:22;;;;;;;;;;;28.90;35.40;;;;;;4914020;28;46131;-63
2022/08/08 03:35:48;;;;;;;;;;;28.90;35.40;;;;;;4908775;28;45585;-62
2022/08/08 03:38:13;;;;;;;;;;;28.90;35.40;;;;;;4906196;28;45479;-62
2022/08/08 03:40:39;;;;;;;;;;;28.90;35.40;;;;;;4911522;28;46094;-63
2022/08/08 03:43:09;;;;;;;;;;;28.90;35.50;;;;;;4905116;28;44914;-63
2022/08/08 03:45:35;;;;;;;;;;;28.90;35.50;;;;;;4908458;28;45169;-63
2022/08/08 03:48:04;;;;;;;;;;;28.90;35.50;;;;;;4903449;28;45568;-62
2022/08/08 03:50:30;;;;;;;;;;;28.90;35.50;;;;;;4920697;28;45133;-63
2022/08/08 03:52:56;;;;;;;;;;;28.90;35.50;;;;;;4908715;28;45248;-63
2022/08/08 03:55:21;;;;;;;;;;;28.90;35.50;;;;;;4901532;28;45018;-62
2022/08/08 03:57:48;;;;;;;;;;;28.90;35.50;;;;;;4906310;28;45549;-63
2022/08/08 04:00:14;;;;;;;;;;;28.90;35.60;;;;;;4905468;28;44949;-62
2022/08/08 04:02:40;;;;;;;;;;;28.80;35.50;;;;;;4901036;28;45608;-63
2022/08/08 04:05:05;;;;;;;;;;;28.80;35.50;;;;;;4921722;28;45353;-62
2022/08/08 04:07:37;;;;;;;;;;;28.80;35.60;;;;;;4902946;28;45431;-62
2022/08/08 04:10:03;;;;;;;;;;;28.80;36.20;;;;;;4905718;28;44951;-64
2022/08/08 04:12:29;;;;;;;;;;;28.80;35.50;;;;;;4897805;28;46438;-62
2022/08/08 04:14:54;;;;;;;;;;;28.80;35.60;;;;;;4907426;28;44559;-62
2022/08/08 04:17:20;;;;;;;;;;;28.80;35.60;;;;;;4897951;28;45564;-62
2022/08/08 04:19:45;;;;;;;;;;;28.80;36.20;;;;;;4905795;28;45295;-63
2022/08/08 04:22:11;;;;;;;;;;;28.80;35.70;;;;;;4898992;28;46130;-63
2022/08/08 04:24:36;;;;;;;;;;;28.80;35.60;;;;;;4902995;28;45575;-62
2022/08/08 04:27:03;;;;;;;;;;;28.70;35.60;;;;;;4899596;28;46274;-62
2022/08/08 04:29:29;;;;;;;;;;;28.70;35.60;;;;;;4907985;28;45270;-63
2022/08/08 04:31:54;;;;;;;;;;;28.80;35.70;;;;;;4901057;28;45956;-63
2022/08/08 04:34:20;;;;;;;;;;;28.70;35.60;;;;;;4917913;28;45540;-63
2022/08/08 04:36:45;;;;;;;;;;;28.70;35.60;;;;;;4896124;28;45399;-63
2022/08/08 04:39:11;;;;;;;;;;;28.70;35.70;;;;;;4887013;28;45043;-63
2022/08/08 04:41:36;;;;;;;;;;;28.70;35.70;;;;;;4903063;28;45859;-62
2022/08/08 04:44:02;;;;;;;;;;;28.70;35.60;;;;;;4919208;28;45496;-63
2022/08/08 04:46:27;;;;;;;;;;;28.80;35.70;;;;;;4885391;28;45311;-63
2022/08/08 04:48:52;;;;;;;;;;;28.70;35.60;;;;;;4915950;28;45520;-63
2022/08/08 04:51:18;;;;;;;;;;;28.70;35.70;;;;;;4902714;28;46107;-63
2022/08/08 04:53:43;;;;;;;;;;;28.70;35.70;;;;;;4888834;29;45540;-63
2022/08/08 04:56:10;;;;;;;;;;;28.70;35.70;;;;;;4901529;28;45546;-63
2022/08/08 04:58:36;;;;;;;;;;;28.70;35.70;;;;;;4910327;28;45332;-62
2022/08/08 05:01:02;;;;;;;;;;;28.70;35.70;;;;;;4896004;28;45691;-63
2022/08/08 05:03:27;;;;;;;;;;;28.70;35.70;;;;;;4912220;28;45415;-62
2022/08/08 05:05:53;;;;;;;;;;;28.70;35.70;;;;;;4901210;28;45573;-63
2022/08/08 05:08:18;;;;;;;;;;;28.70;35.70;;;;;;4913008;28;45269;-62
2022/08/08 05:10:43;;;;;;;;;;;28.70;35.70;;;;;;4907444;28;46177;-62
2022/08/08 05:13:09;;;;;;;;;;;28.70;35.70;;;;;;4911126;28;45075;-62
2022/08/08 05:15:34;;;;;;;;;;;28.70;35.80;;;;;;4903362;28;45272;-62
2022/08/08 05:18:00;;;;;;;;;;;28.70;35.80;;;;;;4910481;28;45507;-62
2022/08/08 05:20:25;;;;;;;;;;;28.70;35.80;;;;;;4909229;28;45962;-63
2022/08/08 05:22:51;;;;;;;;;;;28.70;35.80;;;;;;4916531;28;45227;-62
2022/08/08 05:25:17;;;;;;;;;;;28.70;35.70;;;;;;4923992;28;45292;-62
2022/08/08 05:27:42;;;;;;;;;;;29.50;34.90;;;;;;4903144;28;45696;-62
2022/08/08 05:30:11;;;;;;;;;;;30.60;33.10;;;;;;4905044;28;46056;-63
2022/08/08 05:32:37;;;;;;;;;;;31.20;32.00;;;;;;4905526;28;44775;-63
2022/08/08 05:35:03;;;;;;;;;;;31.70;31.20;;;;;;4918493;28;45005;-63
2022/08/08 05:37:30;;;;;;;;;;;31.90;30.90;;;;;;4906014;28;45140;-63
2022/08/08 05:39:55;;;;;;;;;;;31.60;31.30;;;;;;4923121;28;45978;-62
2022/08/08 05:42:22;;;;;;;;;;;30.70;32.20;;;;;;4915861;28;45537;-63
2022/08/08 05:44:48;;;;;;;;;;;30.20;33.20;;;;;;4907650;28;45443;-63
2022/08/08 05:47:13;;;;;;;;;;;29.80;33.90;;;;;;4909370;28;45229;-63
2022/08/08 05:49:43;;;;;;;;;;;29.50;34.30;;;;;;4912979;28;46196;-63
2022/08/08 05:52:08;;;;;;;;;;;29.30;34.60;;;;;;4917049;28;45690;-63
2022/08/08 05:54:34;;;;;;;;;;;29.20;34.90;;;;;;4912873;28;44768;-62
2022/08/08 05:56:59;;;;;;;;;;;29.20;35.10;;;;;;4919012;28;45377;-62
2022/08/08 05:59:25;;;;;;;;;;;29.10;35.10;;;;;;4906537;28;45154;-63
2022/08/08 06:01:52;;;;;;;;;;;29.00;35.20;;;;;;4899506;28;45322;-63
2022/08/08 06:04:18;;;;;;;;;;;29.00;35.40;;;;;;4916499;28;45627;-63
2022/08/08 06:06:43;;;;;;;;;;;29.00;35.50;;;;;;4894160;28;45494;-63
2022/08/08 06:09:09;;;;;;;;;;;29.00;35.40;;;;;;4906968;28;45833;-63
2022/08/08 06:11:34;;;;;;;;;;;29.00;35.40;;;;;;4922063;28;45454;-63
2022/08/08 06:14:01;;;;;;;;;;;29.00;35.50;;;;;;4902487;28;45548;-63
2022/08/08 06:16:27;;;;;;;;;;;29.00;35.50;;;;;;4907675;28;45500;-63
2022/08/08 06:18:53;;;;;;;;;;;29.00;35.40;;;;;;4903226;28;46408;-63
2022/08/08 06:21:18;;;;;;;;;;;29.00;35.40;;;;;;4902273;28;45240;-63
2022/08/08 06:23:44;;;;;;;;;;;29.00;35.30;;;;;;4905119;28;45407;-62
2022/08/08 06:26:10;;;;;;;;;;;29.10;35.30;;;;;;4905950;28;45457;-63
2022/08/08 06:28:49;;;;;;;;;;;29.20;35.20;;;;;;4921159;28;46208;-63
2022/08/08 06:31:16;;;;;;;;;;;29.30;35.10;;;;;;4915203;28;46105;-63
2022/08/08 06:33:41;;;;;;;;;;;29.30;34.90;;;;;;4899754;28;44737;-64
2022/08/08 06:36:07;;;;;;;;;;;29.40;34.80;;;;;;4903381;28;45314;-63
2022/08/08 06:38:33;;;;;;;;;;;29.40;34.70;;;;;;4905571;28;46097;-63
2022/08/08 06:41:02;;;;;;;;;;;29.50;34.80;;;;;;4880809;28;45495;-63
2022/08/08 06:43:28;;;;;;;;;;;29.40;34.70;;;;;;4888078;29;45027;-63
2022/08/08 06:45:54;;;;;;;;;;;29.40;34.70;;;;;;4927144;28;44898;-63
2022/08/08 06:48:19;;;;;;;;;;;29.40;34.70;;;;;;4923933;28;46887;-63
2022/08/08 06:50:45;;;;;;;;;;;29.40;34.70;;;;;;4913267;28;44839;-63
2022/08/08 06:53:10;;;;;;;;;;;29.40;34.70;;;;;;4899760;28;45551;-63
2022/08/08 06:55:36;;;;;;;;;;;29.50;34.70;;;;;;4907973;28;45493;-63
2022/08/08 06:58:01;;;;;;;;;;;29.50;34.60;;;;;;4920980;28;46286;-63
2022/08/08 07:00:30;;;;;;;;;;;29.50;34.50;;;;;;4903141;28;45563;-64
2022/08/08 07:02:57;;;;;;;;;;;29.60;34.60;;;;;;4904780;28;44889;-63
2022/08/08 07:05:23;;;;;;;;;;;29.60;34.50;;;;;;4904166;28;45259;-63
2022/08/08 07:07:53;;;;;;;;;;;29.60;34.50;;;;;;4903078;28;45724;-63
2022/08/08 07:10:22;;;;;;;;;;;29.60;34.40;;;;;;4909970;28;45229;-63
2022/08/08 07:12:51;;;;;;;;;;;29.70;34.40;;;;;;4918450;28;45446;-63
2022/08/08 07:15:17;;;;;;;;;;;29.70;34.40;;;;;;4900382;28;45155;-63
2022/08/08 07:17:42;;;;;;;;;;;29.70;34.30;;;;;;4917034;28;47463;-63
2022/08/08 07:20:08;;;;;;;;;;;29.70;34.40;;;;;;4900768;28;45564;-62
2022/08/08 07:22:40;;;;;;;;;;;29.60;34.30;;;;;;4898026;28;45209;-63
2022/08/08 07:25:06;;;;;;;;;;;29.70;34.40;;;;;;4886845;28;45189;-63
2022/08/08 07:27:36;;;;;;;;;;;29.60;34.40;;;;;;4884779;29;45947;-63
2022/08/08 07:30:03;;;;;;;;;;;29.60;34.40;;;;;;4921812;28;45529;-62
2022/08/08 07:32:29;;;;;;;;;;;29.60;34.50;;;;;;4896295;28;44815;-63
2022/08/08 07:34:54;;;;;;;;;;;29.60;34.50;;;;;;4888372;28;45526;-63
2022/08/08 07:37:21;;;;;;;;;;;29.60;34.60;;;;;;4909427;28;47882;-63
2022/08/08 07:39:47;;;;;;;;;;;29.60;34.50;;;;;;4923452;28;45563;-63
2022/08/08 07:42:12;;;;;;;;;;;29.60;34.50;;;;;;4915881;28;45548;-63
2022/08/08 07:44:40;;;;;;;;;;;29.60;34.50;;;;;;4924320;28;45302;-63
2022/08/08 07:47:05;;;;;;;;;;;29.60;34.50;;;;;;4925601;28;46248;-63
2022/08/08 07:49:31;;;;;;;;;;;29.70;34.50;;;;;;4911545;28;45511;-64
2022/08/08 07:51:56;;;;;;;;;;;29.70;34.40;;;;;;4889206;28;45228;-64
2022/08/08 07:54:33;;;;;;;;;;;29.70;34.40;;;;;;4915290;28;45179;-64
2022/08/08 07:57:06;;;;;;;;;;;29.80;34.40;;;;;;4891580;28;46152;-64
2022/08/08 07:59:38;;;;;;;;;;;29.80;34.40;;;;;;4892012;29;44735;-64
2022/08/08 08:02:05;;;;;;;;;;;29.80;34.40;;;;;;4894326;28;44660;-64
2022/08/08 08:04:33;;;;;;;;;;;29.80;34.40;;;;;;4908646;28;45242;-64
2022/08/08 08:07:02;;;;;;;;;;;29.80;34.40;;;;;;4899742;28;45150;-64
2022/08/08 08:09:28;;;;;;;;;;;29.80;34.40;;;;;;4906221;28;45524;-63
2022/08/08 08:11:53;;;;;;;;;;;29.80;34.40;;;;;;4920839;28;44737;-64
2022/08/08 08:14:29;;;;;;;;;;;29.80;34.30;;;;;;4905661;28;45293;-64
2022/08/08 08:16:54;;;;;;;;;;;29.90;34.40;;;;;;4898604;28;46187;-64
2022/08/08 08:19:21;;;;;;;;;;;29.90;34.40;;;;;;4908980;28;45371;-64
2022/08/08 08:21:47;;;;;;;;;;;29.90;34.30;;;;;;4921162;28;45351;-64
2022/08/08 08:24:12;;;;;;;;;;;29.90;34.30;;;;;;4900265;28;45237;-64
2022/08/08 08:26:38;;;;;;;;;;;29.90;34.30;;;;;;4913806;28;45923;-64
2022/08/08 08:29:04;;;;;;;;;;;30.00;34.40;;;;;;4903995;28;44664;-63
2022/08/08 08:31:29;;;;;;;;;;;30.00;34.40;;;;;;4901021;28;45517;-64
2022/08/08 08:33:55;;;;;;;;;;;30.00;34.30;;;;;;4906135;28;45591;-64
2022/08/08 08:36:20;;;;;;;;;;;30.00;34.30;;;;;;4907926;28;45311;-63
2022/08/08 08:38:46;;;;;;;;;;;30.00;34.30;;;;;;4902894;28;45339;-64
2022/08/08 08:41:12;;;;;;;;;;;30.00;34.40;;;;;;4905787;28;45297;-64
2022/08/08 08:43:40;;;;;;;;;;;30.00;34.40;;;;;;4913253;28;45380;-64
2022/08/08 08:46:06;;;;;;;;;;;30.00;34.40;;;;;;4897492;28;46150;-64
2022/08/08 08:48:31;;;;;;;;;;;30.00;34.30;;;;;;4924004;28;45553;-64
2022/08/08 08:50:57;;;;;;;;;;;30.00;34.30;;;;;;4921316;28;45254;-63
2022/08/08 08:53:22;;;;;;;;;;;30.00;34.30;;;;;;4904865;28;45335;-64
2022/08/08 08:55:48;;;;;;;;;;;30.00;34.30;;;;;;4904755;28;45150;-63
2022/08/08 08:58:32;;;;;;;;;;;30.10;34.40;;;;;;4910174;28;45171;-63
2022/08/08 09:00:59;;;;;;;;;;;30.10;34.30;;;;;;4905179;28;45435;-64
2022/08/08 09:03:24;;;;;;;;;;;30.10;34.40;;;;;;4904276;28;45238;-63
2022/08/08 09:05:50;;;;;;;;;;;30.10;34.30;;;;;;4896114;28;45225;-64
2022/08/08 09:08:15;;;;;;;;;;;30.10;34.40;;;;;;4904549;28;45278;-64
2022/08/08 09:10:41;;;;;;;;;;;30.10;34.40;;;;;;4891924;28;44887;-64
2022/08/08 09:13:06;;;;;;;;;;;30.10;34.40;;;;;;4920665;28;45746;-64
2022/08/08 09:15:32;;;;;;;;;;;30.10;34.30;;;;;;4867821;28;46337;-64
2022/08/08 09:17:57;;;;;;;;;;;30.20;34.30;;;;;;4926913;28;44732;-64
2022/08/08 09:20:24;;;;;;;;;;;30.20;34.30;;;;;;4887459;28;45215;-64
2022/08/08 09:22:50;;;;;;;;;;;30.20;34.30;;;;;;4898352;28;45580;-64
2022/08/08 09:25:15;;;;;;;;;;;30.20;34.30;;;;;;4897387;28;45976;-64
2022/08/08 09:27:41;;;;;;;;;;;30.20;34.30;;;;;;4895144;29;45287;-64
2022/08/08 09:30:07;;;;;;;;;;;30.20;34.30;;;;;;4894740;28;45272;-64
2022/08/08 09:32:33;;;;;;;;;;;30.20;34.30;;;;;;4880438;29;46011;-64
2022/08/08 09:34:59;;;;;;;;;;;30.20;34.30;;;;;;4901045;28;45849;-63
2022/08/08 09:37:26;;;;;;;;;;;30.20;34.30;;;;;;4918934;28;45128;-63
2022/08/08 09:39:54;;;;;;;;;;;30.20;34.20;;;;;;4920716;28;45212;-64
2022/08/08 09:42:21;;;;;;;;;;;30.20;34.20;;;;;;4887518;29;45131;-64
2022/08/08 09:45:05;;;;;;;;;;;30.20;34.20;;;;;;4895888;28;47374;-63
2022/08/08 09:47:39;;;;;;;;;;;30.30;34.30;;;;;;4897986;28;45454;-64
2022/08/08 09:50:07;;;;;;;;;;;30.30;34.30;;;;;;4894595;28;44959;-64
2022/08/08 09:52:33;;;;;;;;;;;30.30;34.20;;;;;;4899320;28;45505;-64
2022/08/08 09:54:58;;;;;;;;;;;30.30;34.20;;;;;;4920179;28;46869;-64
2022/08/08 09:57:31;;;;;;;;;;;30.30;34.20;;;;;;4921314;28;45137;-63
2022/08/08 09:59:58;;;;;;;;;;;30.30;34.20;;;;;;4913870;28;45080;-64
2022/08/08 10:02:23;;;;;;;;;;;30.30;34.10;;;;;;4917292;28;45587;-64
2022/08/08 10:04:49;;;;;;;;;;;30.30;34.10;;;;;;4882770;29;46064;-64
2022/08/08 10:07:15;;;;;;;;;;;30.30;34.20;;;;;;4913703;28;45396;-63
2022/08/08 10:09:42;;;;;;;;;;;30.30;34.20;;;;;;4920340;28;45513;-64
2022/08/08 10:12:08;;;;;;;;;;;30.30;34.00;;;;;;4901521;28;45517;-64
2022/08/08 10:14:33;;;;;;;;;;;30.30;34.10;;;;;;4908933;28;46908;-64
2022/08/08 10:17:01;;;;;;;;;;;30.30;34.00;;;;;;4899628;28;44713;-64
2022/08/08 10:19:33;;;;;;;;;;;30.30;34.00;;;;;;4899858;28;45255;-64
2022/08/08 10:21:59;;;;;;;;;;;30.40;34.00;;;;;;4907446;28;45301;-64
2022/08/08 10:24:24;;;;;;;;;;;30.40;34.00;;;;;;4898620;28;46160;-64
2022/08/08 10:26:53;;;;;;;;;;;30.40;34.00;;;;;;4923135;28;44730;-62
2022/08/08 10:29:20;;;;;;;;;;;30.40;34.70;;;;;;4906827;28;44749;-64
2022/08/08 10:34:30;;;;;;;;;;;30.40;34.00;;;;;;4912129;28;46650;-63
2022/08/08 10:36:56;;;;;;;;;;;30.40;34.00;;;;;;4920951;28;45172;-64
2022/08/08 10:39:25;;;;;;;;;;;30.40;34.00;;;;;;4902421;28;46174;-63
2022/08/08 10:41:55;;;;;;;;;;;30.40;34.00;;;;;;4900611;28;46171;-64
2022/08/08 10:44:39;;;;;;;;;;;30.40;34.00;;;;;;4909081;28;46003;-64
2022/08/08 10:47:07;;;;;;;;;;;30.50;34.00;;;;;;4899791;28;45290;-64
2022/08/08 10:49:33;;;;;;;;;;;30.50;34.00;;;;;;4898599;28;45508;-63
2022/08/08 10:51:58;;;;;;;;;;;30.50;34.60;;;;;;4907216;28;45247;-64
2022/08/08 10:54:24;;;;;;;;;;;30.50;34.00;;;;;;4890039;29;45651;-64
2022/08/08 10:56:56;;;;;;;;;;;30.50;33.90;;;;;;4914031;28;45234;-63
2022/08/08 10:59:22;;;;;;;;;;;30.50;33.90;;;;;;4902028;28;45455;-64
2022/08/08 11:01:47;;;;;;;;;;;30.50;34.00;;;;;;4903730;28;45520;-64
2022/08/08 11:04:12;;;;;;;;;;;30.50;33.90;;;;;;4916479;28;45822;-64
2022/08/08 11:06:38;;;;;;;;;;;30.50;34.00;;;;;;4900884;28;44974;-64
2022/08/08 11:09:05;;;;;;;;;;;30.50;34.00;;;;;;4909734;28;45444;-62
2022/08/08 11:11:37;;;;;;;;;;;30.50;34.00;;;;;;4927853;28;45311;-64
2022/08/08 11:14:03;;;;;;;;;;;30.50;34.00;;;;;;4903254;28;46951;-62
2022/08/08 11:16:31;;;;;;;;;;;30.50;34.00;;;;;;4914509;28;45421;-64
2022/08/08 11:18:56;;;;;;;;;;;30.50;34.00;;;;;;4885483;28;45228;-64
2022/08/08 11:21:22;;;;;;;;;;;30.50;34.00;;;;;;4883552;28;44922;-63
2022/08/08 11:23:48;;;;;;;;;;;30.50;34.00;;;;;;4906665;28;46369;-63
2022/08/08 11:26:16;;;;;;;;;;;30.50;33.90;;;;;;4906521;28;45546;-64
2022/08/08 11:28:42;;;;;;;;;;;30.50;33.90;;;;;;4898949;28;45227;-64
2022/08/08 11:31:07;;;;;;;;;;;30.60;34.00;;;;;;4916828;28;45637;-64
2022/08/08 11:33:35;;;;;;;;;;;30.60;33.90;;;;;;4918968;28;46504;-63
2022/08/08 11:36:01;;;;;;;;;;;30.60;33.90;;;;;;4911061;28;46565;-63
2022/08/08 11:38:26;;;;;;;;;;;30.60;33.90;;;;;;4917824;28;45168;-64
2022/08/08 11:40:52;;;;;;;;;;;30.60;33.90;;;;;;4898449;28;45181;-64
2022/08/08 11:43:18;;;;;;;;;;;30.60;33.90;;;;;;4907501;28;44984;-63
2022/08/08 11:45:44;;;;;;;;;;;30.60;34.00;;;;;;4917841;28;45424;-63
2022/08/08 11:48:09;;;;;;;;;;;30.60;34.00;;;;;;4919336;28;45136;-63
2022/08/08 11:50:35;;;;;;;;;;;30.60;34.00;;;;;;4904761;28;45206;-63
2022/08/08 11:53:01;;;;;;;;;;;30.60;34.00;;;;;;4905938;28;46240;-62
2022/08/08 11:55:26;;;;;;;;;;;30.60;33.90;;;;;;4902500;28;45193;-63
2022/08/08 11:58:01;;;;;;;;;;;30.60;33.90;;;;;;4903353;28;45567;-63
2022/08/08 12:00:27;;;;;;;;;;;30.60;33.80;;;;;;4902340;28;45173;-63
2022/08/08 12:02:53;;;;;;;;;;;30.60;33.90;;;;;;4920232;28;45223;-64
2022/08/08 12:05:29;;;;;;;;;;;30.70;34.00;;;;;;4894247;28;45274;-64
2022/08/08 12:07:54;;;;;;;;;;;30.60;34.50;;;;;;4919611;28;45252;-63
2022/08/08 12:10:20;;;;;;;;;;;30.70;34.00;;;;;;4906211;28;45715;-64
2022/08/08 12:12:46;;;;;;;;;;;30.70;33.90;;;;;;4895276;28;46809;-64
2022/08/08 12:15:12;;;;;;;;;;;30.70;34.20;;;;;;4913824;28;45291;-64
2022/08/08 12:17:38;;;;;;;;;;;30.60;34.10;;;;;;4903980;28;44837;-64
2022/08/08 12:20:04;;;;;;;;;;;30.60;34.20;;;;;;4899859;28;45133;-64
2022/08/08 12:22:34;;;;;;;;;;;30.70;34.20;;;;;;4892902;29;46232;-64
2022/08/08 12:25:00;;;;;;;;;;;30.60;34.10;;;;;;4889419;28;45017;-63
2022/08/08 12:27:36;;;;;;;;;;;30.70;34.10;;;;;;4915560;28;45319;-64
2022/08/08 12:30:02;;;;;;;;;;;30.70;34.10;;;;;;4908941;28;45233;-63
2022/08/08 12:32:27;;;;;;;;;;;30.70;34.10;;;;;;4926710;28;46166;-64
2022/08/08 12:34:56;;;;;;;;;;;30.70;34.50;;;;;;4915395;28;44971;-64
2022/08/08 12:37:25;;;;;;;;;;;30.60;34.00;;;;;;4906584;28;45491;-63
2022/08/08 12:39:51;;;;;;;;;;;30.60;34.00;;;;;;4899814;28;45136;-64
2022/08/08 12:42:16;;;;;;;;;;;30.70;34.10;;;;;;4922651;28;45485;-63
2022/08/08 12:44:42;;;;;;;;;;;30.60;34.10;;;;;;4900209;28;45262;-64
2022/08/08 12:47:07;;;;;;;;;;;30.60;34.10;;;;;;4899422;28;45400;-64
2022/08/08 12:49:34;;;;;;;;;;;30.70;34.10;;;;;;4897852;28;45177;-63
2022/08/08 12:51:59;;;;;;;;;;;30.70;34.10;;;;;;4905810;28;46095;-63
2022/08/08 12:54:27;;;;;;;;;;;30.60;34.00;;;;;;4901085;28;44648;-64
2022/08/08 12:56:53;;;;;;;;;;;30.70;34.00;;;;;;4882099;28;45216;-64
2022/08/08 12:59:23;;;;;;;;;;;30.60;34.00;;;;;;4902283;28;44854;-64
2022/08/08 13:01:58;;;;;;;;;;;30.60;33.90;;;;;;4903517;28;45351;-64
2022/08/08 13:04:24;;;;;;;;;;;30.70;33.90;;;;;;4899048;28;45080;-64
2022/08/08 13:06:53;;;;;;;;;;;30.70;33.90;;;;;;4919639;28;45288;-64
2022/08/08 13:09:28;;;;;;;;;;;30.70;33.80;;;;;;4896477;28;45988;-64
2022/08/08 13:11:53;;;;;;;;;;;30.70;33.80;;;;;;4903000;28;45475;-64
2022/08/08 13:14:19;;;;;;;;;;;30.70;33.90;;;;;;4898468;28;45222;-64
2022/08/08 13:16:44;;;;;;;;;;;30.70;33.80;;;;;;4905014;28;45763;-64
2022/08/08 13:19:10;;;;;;;;;;;30.70;33.70;;;;;;4901542;28;45327;-63
2022/08/08 13:21:42;;;;;;;;;;;30.70;33.70;;;;;;4899569;28;45992;-64
2022/08/08 13:24:07;;;;;;;;;;;30.70;33.70;;;;;;4903822;28;45543;-64
2022/08/08 13:26:33;;;;;;;;;;;30.70;33.70;;;;;;4917816;28;45421;-64
2022/08/08 13:28:59;;;;;;;;;;;30.70;34.30;;;;;;4900951;28;45092;-64
2022/08/08 13:31:24;;;;;;;;;;;30.70;33.70;;;;;;4910351;28;46022;-64
2022/08/08 13:33:50;;;;;;;;;;;30.70;33.70;;;;;;4892137;29;45368;-63
2022/08/08 13:36:15;;;;;;;;;;;30.70;33.70;;;;;;4897219;28;45205;-62
2022/08/08 13:38:41;;;;;;;;;;;30.70;33.70;;;;;;4899156;28;45188;-65
2022/08/08 13:41:07;;;;;;;;;;;30.70;33.60;;;;;;4896569;28;46121;-63
2022/08/08 13:43:32;;;;;;;;;;;30.70;33.70;;;;;;4901046;28;45186;-64
2022/08/08 13:46:08;;;;;;;;;;;30.70;33.70;;;;;;4917537;28;45536;-64
2022/08/08 13:48:41;;;;;;;;;;;30.70;33.70;;;;;;4900605;28;45549;-63
2022/08/08 13:51:07;;;;;;;;;;;30.70;33.60;;;;;;4894219;28;46314;-64
2022/08/08 13:53:36;;;;;;;;;;;30.80;33.70;;;;;;4925066;28;46471;-64
2022/08/08 13:56:04;;;;;;;;;;;30.80;33.70;;;;;;4896500;28;45251;-61
2022/08/08 13:58:30;;;;;;;;;;;30.80;33.70;;;;;;4907375;28;45380;-63
2022/08/08 14:00:55;;;;;;;;;;;30.80;33.70;;;;;;4900399;28;45976;-62
2022/08/08 14:03:25;;;;;;;;;;;30.70;33.70;;;;;;4907537;28;45242;-63
2022/08/08 14:05:50;;;;;;;;;;;30.80;33.70;;;;;;4909334;28;45559;-63
2022/08/08 14:08:15;;;;;;;;;;;30.70;33.70;;;;;;4908054;28;46140;-63
2022/08/08 14:10:41;;;;;;;;;;;30.70;33.70;;;;;;4903904;28;45290;-63
2022/08/08 14:13:14;;;;;;;;;;;30.80;33.70;;;;;;4907900;28;44998;-63
2022/08/08 14:15:39;;;;;;;;;;;30.80;33.70;;;;;;4898594;28;45759;-62
2022/08/08 14:18:05;;;;;;;;;;;30.80;33.70;;;;;;4909178;28;45266;-63
2022/08/08 14:20:32;;;;;;;;;;;30.70;33.60;;;;;;4888831;29;46889;-63
2022/08/08 14:23:07;;;;;;;;;;;30.80;33.70;;;;;;4903619;28;44929;-63
2022/08/08 14:25:48;;;;;;;;;;;30.70;33.60;;;;;;4901489;28;44758;-63
2022/08/08 14:28:17;;;;;;;;;;;30.80;33.60;;;;;;4906454;28;44837;-63
2022/08/08 14:30:43;;;;;;;;;;;30.70;33.60;;;;;;4897380;28;46064;-63
2022/08/08 14:33:09;;;;;;;;;;;30.80;33.60;;;;;;4901755;28;45334;-63
2022/08/08 14:35:35;;;;;;;;;;;30.80;33.60;;;;;;4895348;28;45259;-63
2022/08/08 14:38:01;;;;;;;;;;;30.70;33.50;;;;;;4901810;28;45382;-62
2022/08/08 14:40:27;;;;;;;;;;;30.80;33.60;;;;;;4894137;28;46125;-63
2022/08/08 14:42:53;;;;;;;;;;;30.70;33.40;;;;;;4918091;28;45242;-63
2022/08/08 14:45:19;;;;;;;;;;;30.80;33.50;;;;;;4928293;28;45542;-63
2022/08/08 14:47:45;;;;;;;;;;;30.80;33.50;;;;;;4895954;29;45469;-62
2022/08/08 14:50:12;;;;;;;;;;;30.70;33.50;;;;;;4884489;28;46005;-62
2022/08/08 14:52:58;;;;;;;;;;;30.70;33.50;;;;;;4912759;28;45038;-63
2022/08/08 14:55:25;;;;;;;;;;;30.80;33.80;;;;;;4898611;28;44698;-63
2022/08/08 14:57:51;;;;;;;;;;;30.80;33.50;;;;;;4901841;28;44787;-63
2022/08/08 15:00:16;;;;;;;;;;;30.80;33.50;;;;;;4924168;28;45346;-62
2022/08/08 15:02:44;;;;;;;;;;;30.80;33.50;;;;;;4900530;28;45486;-63
2022/08/08 15:05:09;;;;;;;;;;;30.80;33.50;;;;;;4906391;28;44851;-63
2022/08/08 15:07:34;;;;;;;;;;;30.80;33.60;;;;;;4909312;28;45168;-63
2022/08/08 15:10:00;;;;;;;;;;;30.80;33.60;;;;;;4901867;28;45366;-63
2022/08/08 15:12:26;;;;;;;;;;;30.80;33.70;;;;;;4903022;28;45473;-62
2022/08/08 15:14:51;;;;;;;;;;;30.80;33.70;;;;;;4924082;28;45466;-63
2022/08/08 15:17:17;;;;;;;;;;;30.80;33.60;;;;;;4913223;28;45478;-63
2022/08/08 15:19:42;;;;;;;;;;;30.80;33.70;;;;;;4920531;28;45294;-62
2022/08/08 15:22:08;;;;;;;;;;;30.80;33.70;;;;;;4907071;28;45298;-62
2022/08/08 15:24:33;;;;;;;;;;;30.80;33.70;;;;;;4901582;28;45205;-63
2022/08/08 15:26:59;;;;;;;;;;;30.80;33.70;;;;;;4912419;28;46161;-63
2022/08/08 15:29:24;;;;;;;;;;;30.80;33.70;;;;;;4882485;29;45907;-63
2022/08/08 15:31:50;;;;;;;;;;;30.80;33.70;;;;;;4900247;28;44782;-63
2022/08/08 15:34:16;;;;;;;;;;;30.80;33.70;;;;;;4907373;28;44921;-63
2022/08/08 15:36:41;;;;;;;;;;;30.80;33.70;;;;;;4902205;28;45022;-63
2022/08/08 15:39:07;;;;;;;;;;;30.80;33.60;;;;;;4905993;28;45441;-64
2022/08/08 15:41:32;;;;;;;;;;;30.80;33.60;;;;;;4904904;28;45008;-64
2022/08/08 15:43:58;;;;;;;;;;;30.80;33.70;;;;;;4906277;28;45461;-63
2022/08/08 15:46:24;;;;;;;;;;;30.80;33.70;;;;;;4909720;28;45278;-62
2022/08/08 15:48:49;;;;;;;;;;;30.80;33.70;;;;;;4909654;28;45700;-63
2022/08/08 15:51:15;;;;;;;;;;;30.80;33.70;;;;;;4884301;28;44894;-64
2022/08/08 15:53:41;;;;;;;;;;;30.80;33.70;;;;;;4906543;28;44943;-63
2022/08/08 15:56:06;;;;;;;;;;;30.80;33.70;;;;;;4907801;28;45223;-62
2022/08/08 15:58:32;;;;;;;;;;;30.80;33.70;;;;;;4902733;28;45509;-63
2022/08/08 16:00:57;;;;;;;;;;;30.80;33.70;;;;;;4890903;28;44997;-63
2022/08/08 16:03:23;;;;;;;;;;;30.80;33.80;;;;;;4912079;28;45264;-63
2022/08/08 16:05:48;;;;;;;;;;;30.80;33.70;;;;;;4902180;28;44973;-63
2022/08/08 16:08:14;;;;;;;;;;;30.80;33.70;;;;;;4900277;28;47057;-63
2022/08/08 16:10:39;;;;;;;;;;;30.80;33.70;;;;;;4896749;28;45201;-63
2022/08/08 16:13:05;;;;;;;;;;;30.90;33.80;;;;;;4910255;28;45476;-62
2022/08/08 16:15:30;;;;;;;;;;;30.80;33.70;;;;;;4902670;28;45180;-64
2022/08/08 16:17:57;;;;;;;;;;;30.90;33.80;;;;;;4904077;28;46229;-63
2022/08/08 16:20:23;;;;;;;;;;;30.80;33.70;;;;;;4894481;28;44967;-63
2022/08/08 16:22:48;;;;;;;;;;;30.90;33.70;;;;;;4902059;28;45296;-63
2022/08/08 16:25:14;;;;;;;;;;;30.90;33.70;;;;;;4902503;28;45647;-63
2022/08/08 16:27:40;;;;;;;;;;;30.80;33.60;;;;;;4905952;28;45916;-63
2022/08/08 16:30:06;;;;;;;;;;;30.80;33.60;;;;;;4900205;28;44825;-62
2022/08/08 16:32:32;;;;;;;;;;;30.90;33.70;;;;;;4883858;29;44965;-63
2022/08/08 16:34:57;;;;;;;;;;;30.90;33.70;;;;;;4902580;28;45536;-62
2022/08/08 16:37:24;;;;;;;;;;;30.90;33.70;;;;;;4900110;28;46193;-63
2022/08/08 16:39:50;;;;;;;;;;;30.80;33.70;;;;;;4894457;28;45252;-63
2022/08/08 16:42:15;;;;;;;;;;;30.90;33.70;;;;;;4920691;28;45520;-64
2022/08/08 16:44:41;;;;;;;;;;;30.90;33.80;;;;;;4907624;28;44703;-63
2022/08/08 16:47:16;;;;;;;;;;;30.90;33.80;;;;;;4903674;28;45840;-62
2022/08/08 16:49:41;;;;;;;;;;;30.90;33.80;;;;;;4895330;28;44604;-63
2022/08/08 16:52:07;;;;;;;;;;;30.90;33.80;;;;;;4899361;28;45247;-63
2022/08/08 16:54:32;;;;;;;;;;;30.90;33.90;;;;;;4897878;28;45474;-64
2022/08/08 16:56:58;;;;;;;;;;;30.90;33.80;;;;;;4884616;28;46149;-64
2022/08/08 16:59:23;;;;;;;;;;;30.80;33.80;;;;;;4909803;28;45359;-63
2022/08/08 17:01:49;;;;;;;;;;;30.90;33.80;;;;;;4890739;28;45186;-63
2022/08/08 17:04:14;;;;;;;;;;;30.90;33.90;;;;;;4893742;28;45585;-63
2022/08/08 17:06:40;;;;;;;;;;;30.80;33.80;;;;;;4904413;28;45245;-63
2022/08/08 17:09:05;;;;;;;;;;;30.90;33.90;;;;;;4884768;28;45297;-63
2022/08/08 17:11:31;;;;;;;;;;;30.90;33.90;;;;;;4896787;28;45297;-63
2022/08/08 17:13:56;;;;;;;;;;;30.90;33.90;;;;;;4906784;28;44889;-63
2022/08/08 17:16:22;;;;;;;;;;;30.90;33.90;;;;;;4892576;29;46080;-64
2022/08/08 17:18:47;;;;;;;;;;;30.80;33.80;;;;;;4904437;28;44974;-63